createdAt,value
2023-02-23T00:01:03.533Z,-3.15
2023-02-23T00:04:36.322Z,-3.23
2023-02-23T00:08:21.583Z,-3.54
2023-02-23T00:12:06.489Z,-3.60
2023-02-23T00:15:51.814Z,-3.83
2023-02-23T00:19:37.961Z,-3.94
2023-02-23T00:23:23.506Z,-3.83
2023-02-23T00:27:08.593Z,-3.87
2023-02-23T00:30:54.094Z,-3.79
2023-02-23T00:34:45.555Z,-4.01
2023-02-23T00:38:39.681Z,-3.74
2023-02-23T00:42:31.744Z,-3.53
2023-02-23T00:46:32.887Z,-3.34
2023-02-23T00:50:34.566Z,-3.06
2023-02-23T00:54:32.043Z,-2.89
2023-02-23T00:58:32.530Z,-2.87
2023-02-23T01:02:29.623Z,-2.71
2023-02-23T01:06:30.658Z,-2.63
2023-02-23T01:10:28.643Z,-2.67
2023-02-23T01:14:29.540Z,-2.78
2023-02-23T01:18:26.949Z,-2.82
2023-02-23T01:22:27.611Z,-2.87
2023-02-23T01:26:24.764Z,-2.83
2023-02-23T01:30:24.725Z,-2.79
2023-02-23T01:34:22.957Z,-2.89
2023-02-23T01:38:23.493Z,-2.83
2023-02-23T01:42:21.063Z,-2.74
2023-02-23T01:46:20.831Z,-2.90
2023-02-23T01:50:18.405Z,-2.94
2023-02-23T01:54:19.776Z,-2.98
2023-02-23T01:58:20.038Z,-2.97
2023-02-23T02:02:20.568Z,-3.00
2023-02-23T02:06:18.059Z,-3.01
2023-02-23T02:10:18.569Z,-2.96
2023-02-23T02:14:15.971Z,-3.13
2023-02-23T02:18:16.542Z,-3.28
2023-02-23T02:22:13.790Z,-3.33
2023-02-23T02:26:13.674Z,-3.31
2023-02-23T02:30:11.160Z,-3.27
2023-02-23T02:34:11.802Z,-3.31
2023-02-23T02:38:10.205Z,-3.42
2023-02-23T02:42:11.638Z,-3.48
2023-02-23T02:46:10.186Z,-3.53
2023-02-23T02:50:10.719Z,-3.63
2023-02-23T02:54:09.035Z,-3.57
2023-02-23T02:58:16.815Z,-3.62
2023-02-23T03:02:15.070Z,-3.74
2023-02-23T03:06:15.007Z,-3.73
2023-02-23T03:10:15.113Z,-3.72
2023-02-23T03:14:15.758Z,-3.77
2023-02-23T03:18:13.205Z,-3.99
2023-02-23T03:22:14.665Z,-4.24
2023-02-23T03:26:12.168Z,-4.59
2023-02-23T03:30:15.775Z,-4.45
2023-02-23T03:34:14.201Z,-4.53
2023-02-23T03:38:14.784Z,-4.65
2023-02-23T03:42:12.167Z,-4.70
2023-02-23T03:46:11.778Z,-5.17
2023-02-23T03:50:09.000Z,-5.09
2023-02-23T03:54:09.730Z,-5.16
2023-02-23T03:58:07.054Z,-5.14
2023-02-23T04:02:06.903Z,-5.19
2023-02-23T04:06:12.370Z,-5.49
2023-02-23T04:10:05.803Z,-5.62
2023-02-23T04:14:06.656Z,-5.69
2023-02-23T04:18:00.113Z,-5.72
2023-02-23T04:21:53.460Z,-5.92
2023-02-23T04:25:38.912Z,-5.91
2023-02-23T04:29:24.519Z,-5.86
2023-02-23T04:33:16.150Z,-5.94
2023-02-23T04:37:08.455Z,-5.97
2023-02-23T04:40:59.749Z,-6.04
2023-02-23T04:44:51.194Z,-6.09
2023-02-23T04:48:42.164Z,-6.15
2023-02-23T04:52:34.243Z,-6.05
2023-02-23T04:56:32.865Z,-5.84
2023-02-23T05:00:23.538Z,-5.75
2023-02-23T05:04:21.851Z,-5.74
2023-02-23T05:08:14.200Z,-5.76
2023-02-23T05:12:08.507Z,-5.76
2023-02-23T05:15:57.981Z,-5.67
2023-02-23T05:19:53.473Z,-5.60
2023-02-23T05:23:48.570Z,-5.51
2023-02-23T05:27:42.058Z,-5.24
2023-02-23T05:31:37.760Z,-5.12
2023-02-23T05:35:34.869Z,-5.06
2023-02-23T05:39:26.645Z,-4.87
2023-02-23T05:43:24.928Z,-4.50
2023-02-23T05:46:57.389Z,-4.33
2023-02-23T05:50:48.857Z,-4.17
2023-02-23T05:54:42.281Z,-3.95
2023-02-23T05:58:32.013Z,-3.74
2023-02-23T06:02:29.543Z,-3.45
2023-02-23T06:06:18.791Z,-3.18
2023-02-23T06:10:12.770Z,-2.93
2023-02-23T06:14:10.093Z,-2.71
2023-02-23T06:18:03.446Z,-2.43
2023-02-23T06:21:56.875Z,-2.20
2023-02-23T06:25:46.409Z,-2.15
2023-02-23T06:29:25.196Z,-2.01
2023-02-23T06:33:16.767Z,-1.88
2023-02-23T06:37:09.335Z,-1.63
2023-02-23T06:41:07.248Z,-1.57
2023-02-23T06:44:56.508Z,-1.40
2023-02-23T06:48:54.991Z,-1.47
2023-02-23T06:52:49.216Z,-1.42
2023-02-23T06:56:41.202Z,-1.57
2023-02-23T07:00:32.740Z,-1.21
2023-02-23T07:04:24.479Z,-0.90
2023-02-23T07:08:19.725Z,-0.84
2023-02-23T07:12:11.621Z,-0.97
2023-02-23T07:16:07.058Z,-0.97
2023-02-23T07:20:04.468Z,-0.88
2023-02-23T07:23:56.697Z,-0.63
2023-02-23T07:27:50.918Z,-0.47
2023-02-23T07:31:44.680Z,-0.28
2023-02-23T07:35:35.162Z,-0.02
2023-02-23T07:39:28.819Z,0.22
2023-02-23T07:43:19.627Z,0.46
2023-02-23T07:47:13.492Z,0.25
2023-02-23T07:51:11.339Z,0.42
2023-02-23T07:55:05.324Z,0.57
2023-02-23T07:59:03.569Z,0.83
2023-02-23T08:02:57.410Z,1.09
2023-02-23T08:07:01.618Z,1.24
2023-02-23T08:10:50.440Z,1.25
2023-02-23T08:14:38.690Z,0.97
2023-02-23T08:18:28.161Z,0.83
2023-02-23T08:22:13.766Z,1.16
2023-02-23T08:26:00.673Z,1.19
2023-02-23T08:29:48.320Z,1.58
2023-02-23T08:33:35.204Z,1.75
2023-02-23T08:37:22.277Z,1.67
2023-02-23T08:41:10.952Z,1.71
2023-02-23T08:44:58.369Z,1.80
2023-02-23T08:48:45.521Z,1.81
2023-02-23T08:52:32.246Z,1.99
2023-02-23T08:56:35.302Z,2.01
2023-02-23T09:00:32.895Z,1.92
2023-02-23T09:04:35.834Z,1.98
2023-02-23T09:08:33.799Z,2.08
2023-02-23T09:12:31.669Z,2.00
2023-02-23T09:16:29.876Z,2.02
2023-02-23T09:20:33.403Z,1.99
2023-02-23T09:24:34.050Z,1.60
2023-02-23T09:28:36.369Z,1.54
2023-02-23T09:32:33.954Z,1.55
2023-02-23T09:36:36.032Z,1.90
2023-02-23T09:40:33.933Z,2.17
2023-02-23T09:44:36.273Z,1.80
2023-02-23T09:48:34.127Z,1.68
2023-02-23T09:52:35.996Z,1.83
2023-02-23T09:56:33.972Z,1.94
2023-02-23T10:00:35.468Z,1.94
2023-02-23T10:04:34.949Z,1.86
2023-02-23T10:08:37.128Z,1.78
2023-02-23T10:12:36.065Z,2.15
2023-02-23T10:16:37.990Z,2.27
2023-02-23T10:20:36.063Z,2.42
2023-02-23T10:24:38.389Z,2.54
2023-02-23T10:28:35.962Z,2.51
2023-02-23T10:32:37.551Z,2.34
2023-02-23T10:36:34.961Z,2.24
2023-02-23T10:40:37.690Z,2.02
2023-02-23T10:44:36.067Z,2.02
2023-02-23T10:48:37.896Z,2.37
2023-02-23T10:52:41.647Z,2.67
2023-02-23T10:56:43.965Z,2.95
2023-02-23T11:00:46.499Z,2.94
2023-02-23T11:04:44.082Z,2.86
2023-02-23T11:08:46.117Z,2.50
2023-02-23T11:12:44.130Z,2.31
2023-02-23T11:16:45.559Z,2.31
2023-02-23T11:20:45.107Z,2.26
2023-02-23T11:24:46.579Z,2.25
2023-02-23T11:28:45.080Z,2.21
2023-02-23T11:32:47.784Z,2.19
2023-02-23T11:36:46.225Z,2.38
2023-02-23T11:40:48.781Z,2.50
2023-02-23T11:44:47.295Z,2.62
2023-02-23T11:48:50.592Z,2.65
2023-02-23T11:52:50.356Z,2.73
2023-02-23T11:56:51.678Z,2.83
2023-02-23T12:00:51.168Z,2.76
2023-02-23T12:04:51.195Z,2.63
2023-02-23T12:08:53.290Z,2.56
2023-02-23T12:12:52.163Z,2.50
2023-02-23T12:16:56.808Z,2.50
2023-02-23T12:20:55.229Z,2.48
2023-02-23T12:24:57.772Z,2.49
2023-02-23T12:29:19.339Z,2.68
2023-02-23T12:33:19.289Z,2.79
2023-02-23T12:37:19.241Z,2.71
2023-02-23T12:41:20.935Z,2.67
2023-02-23T12:45:23.577Z,2.58
2023-02-23T12:49:22.159Z,2.38
2023-02-23T12:53:20.409Z,2.31
2023-02-23T12:57:19.285Z,1.94
2023-02-23T13:01:21.298Z,2.05
2023-02-23T13:05:20.324Z,2.07
2023-02-23T13:09:23.860Z,2.14
2023-02-23T13:13:23.190Z,2.11
2023-02-23T13:17:25.363Z,2.10
2023-02-23T13:21:23.419Z,2.10
2023-02-23T13:25:21.274Z,2.07
2023-02-23T13:29:24.793Z,1.98
2023-02-23T13:33:25.648Z,1.89
2023-02-23T13:37:29.867Z,1.81
2023-02-23T13:41:23.322Z,1.83
2023-02-23T13:45:21.019Z,1.86
2023-02-23T13:49:27.350Z,1.80
2023-02-23T13:53:25.563Z,1.77
2023-02-23T13:57:27.512Z,1.80
2023-02-23T14:01:24.187Z,1.82
2023-02-23T14:05:23.769Z,1.81
2023-02-23T14:09:19.301Z,1.67
2023-02-23T14:13:17.124Z,1.52
2023-02-23T14:17:19.942Z,1.39
2023-02-23T14:21:20.136Z,1.42
2023-02-23T14:25:16.220Z,1.32
2023-02-23T14:29:16.306Z,1.31
2023-02-23T14:33:21.575Z,1.21
2023-02-23T14:37:19.317Z,1.18
2023-02-23T14:41:12.770Z,1.10
2023-02-23T14:45:14.829Z,1.02
2023-02-23T14:49:11.499Z,0.93
2023-02-23T14:53:11.082Z,0.79
2023-02-23T14:57:07.348Z,0.65
2023-02-23T15:01:07.665Z,0.57
2023-02-23T15:05:01.137Z,0.49
2023-02-23T15:08:59.109Z,0.38
2023-02-23T15:12:59.024Z,0.37
2023-02-23T15:16:55.490Z,0.22
2023-02-23T15:20:59.331Z,0.04
2023-02-23T15:24:55.342Z,-0.11
2023-02-23T15:28:55.065Z,-0.23
2023-02-23T15:32:54.563Z,-0.40
2023-02-23T15:36:55.260Z,-0.53
2023-02-23T15:40:51.510Z,-0.73
2023-02-23T15:44:51.178Z,-0.89
2023-02-23T15:48:47.336Z,-0.98
2023-02-23T15:52:46.859Z,-1.07
2023-02-23T15:56:47.002Z,-1.21
2023-02-23T16:00:43.104Z,-1.29
2023-02-23T16:04:43.591Z,-1.41
2023-02-23T16:08:47.655Z,-1.55
2023-02-23T16:12:49.719Z,-1.59
2023-02-23T16:17:01.383Z,-1.67
2023-02-23T16:21:10.097Z,-1.87
2023-02-23T16:25:07.577Z,-2.05
2023-02-23T16:29:09.549Z,-2.18
2023-02-23T16:33:08.779Z,-2.12
2023-02-23T16:37:11.223Z,-2.12
2023-02-23T16:41:09.670Z,-2.17
2023-02-23T16:45:10.777Z,-2.24
2023-02-23T16:49:12.597Z,-2.31
2023-02-23T16:53:10.582Z,-2.38
2023-02-23T16:57:13.123Z,-2.50
2023-02-23T17:01:10.598Z,-2.62
2023-02-23T17:05:12.618Z,-2.65
2023-02-23T17:09:12.705Z,-2.69
2023-02-23T17:13:17.550Z,-2.79
2023-02-23T17:17:15.624Z,-2.84
2023-02-23T17:21:17.114Z,-2.90
2023-02-23T17:25:16.773Z,-3.06
2023-02-23T17:29:18.794Z,-3.11
2023-02-23T17:33:17.875Z,-3.21
2023-02-23T17:37:20.157Z,-3.28
2023-02-23T17:41:17.863Z,-3.35
2023-02-23T17:45:19.763Z,-3.44
2023-02-23T17:49:17.677Z,-3.51
2023-02-23T17:53:19.192Z,-3.50
2023-02-23T17:57:18.792Z,-3.54
2023-02-23T18:01:20.471Z,-3.53
2023-02-23T18:05:18.713Z,-3.60
2023-02-23T18:09:20.833Z,-3.64
2023-02-23T18:13:14.658Z,-3.63
2023-02-23T18:17:06.784Z,-3.64
2023-02-23T18:21:03.554Z,-3.67
2023-02-23T18:24:36.786Z,-3.66
2023-02-23T18:28:28.304Z,-3.66
2023-02-23T18:32:21.739Z,-3.65
2023-02-23T18:35:56.568Z,-3.64
2023-02-23T18:39:50.116Z,-3.64
2023-02-23T18:43:43.566Z,-3.70
2023-02-23T18:47:37.411Z,-3.73
2023-02-23T18:51:10.696Z,-3.75
2023-02-23T18:54:43.804Z,-3.78
2023-02-23T18:58:39.907Z,-3.95
2023-02-23T19:02:33.993Z,-4.09
2023-02-23T19:06:25.852Z,-4.06
2023-02-23T19:10:23.749Z,-4.15
2023-02-23T19:14:16.500Z,-4.13
2023-02-23T19:18:15.664Z,-4.04
2023-02-23T19:22:08.752Z,-4.08
2023-02-23T19:26:02.341Z,-4.10
2023-02-23T19:29:55.145Z,-4.09
2023-02-23T19:33:47.826Z,-4.10
2023-02-23T19:37:41.966Z,-4.00
2023-02-23T19:41:35.821Z,-3.92
2023-02-23T19:45:25.967Z,-3.77
2023-02-23T19:49:23.677Z,-3.82
2023-02-23T19:53:18.443Z,-3.74
2023-02-23T19:57:14.187Z,-3.74
2023-02-23T20:01:08.585Z,-3.72
2023-02-23T20:05:01.018Z,-3.70
2023-02-23T20:08:55.226Z,-3.68
2023-02-23T20:12:52.691Z,-3.65
2023-02-23T20:16:44.265Z,-3.72
2023-02-23T20:20:40.467Z,-3.63
2023-02-23T20:24:32.936Z,-3.57
2023-02-23T20:28:26.846Z,-3.58
2023-02-23T20:32:18.936Z,-3.51
2023-02-23T20:36:12.587Z,-3.44
2023-02-23T20:40:04.863Z,-3.43
2023-02-23T20:43:59.544Z,-3.32
2023-02-23T20:47:30.096Z,-3.30
2023-02-23T20:51:20.134Z,-3.29
2023-02-23T20:55:17.992Z,-3.24
2023-02-23T20:59:09.830Z,-3.20
2023-02-23T21:03:03.405Z,-3.10
2023-02-23T21:06:54.841Z,-3.01
2023-02-23T21:10:48.343Z,-3.04
2023-02-23T21:14:39.836Z,-3.01
2023-02-23T21:18:34.586Z,-3.05
2023-02-23T21:22:24.158Z,-3.02
2023-02-23T21:26:15.603Z,-2.96
2023-02-23T21:30:11.488Z,-2.95
2023-02-23T21:34:05.162Z,-2.92
2023-02-23T21:37:56.741Z,-2.87
2023-02-23T21:41:50.442Z,-2.83
2023-02-23T21:45:41.723Z,-2.80
2023-02-23T21:49:36.157Z,-2.88
2023-02-23T21:53:27.814Z,-2.85
2023-02-23T21:57:19.390Z,-2.82
2023-02-23T22:01:08.736Z,-2.81
2023-02-23T22:05:04.743Z,-2.93
2023-02-23T22:08:57.246Z,-2.94
2023-02-23T22:12:51.828Z,-2.93
2023-02-23T22:16:43.710Z,-2.88
2023-02-23T22:20:37.400Z,-2.88
2023-02-23T22:24:29.007Z,-2.74
2023-02-23T22:28:20.247Z,-2.74
2023-02-23T22:32:09.781Z,-2.84
2023-02-23T22:36:06.375Z,-2.86
2023-02-23T22:39:59.059Z,-2.78
2023-02-23T22:43:52.546Z,-2.79
2023-02-23T22:47:44.201Z,-2.77
2023-02-23T22:51:38.522Z,-2.85
2023-02-23T22:55:29.564Z,-2.87
2023-02-23T22:59:22.054Z,-2.81
2023-02-23T23:03:22.842Z,-2.79
2023-02-23T23:07:16.516Z,-2.88
2023-02-23T23:11:09.496Z,-2.90
2023-02-23T23:15:02.884Z,-2.85
2023-02-23T23:18:55.086Z,-2.88
2023-02-23T23:22:48.567Z,-2.82
2023-02-23T23:26:45.993Z,-2.76
2023-02-23T23:30:40.011Z,-2.76
2023-02-23T23:34:32.040Z,-2.67
2023-02-23T23:38:25.337Z,-2.54
2023-02-23T23:42:16.906Z,-2.36
2023-02-23T23:46:10.268Z,-2.25
2023-02-23T23:50:01.931Z,-2.12
2023-02-23T23:53:55.778Z,-1.99
2023-02-23T23:57:48.278Z,-1.85
